LEAL/ALC METAR and TAF weather

Enter ICAO airport designator
Station Type Date Time Source
LEAL METAR 2020/09/23 18:00 UTC NOAA

LEAL 231800Z 00000KT CAVOK 28/17 Q1011 NOSIG


Station Type Date Time Source
LEAL Decoded METAR 2020/09/23 18:00 UTC NOAA

Alicante / El Altet, Spain (LEAL) 38-17N 000-33W 31M
Sep 23, 2020 - 02:00 PM EDT / 2020.09.23 1800 UTC
Wind: Calm:0
Visibility: greater than 7 mile(s):0
Temperature: 82 F (28 C)
Dew Point: 62 F (17 C)
Relative Humidity: 51%
Pressure (altimeter): 29.85 in. Hg (1011 hPa)
ob: LEAL 231800Z 00000KT CAVOK 28/17 Q1011 NOSIG
cycle: 18

Station Type Date Time Source
LEAL TAF 2020/09/23 18:27 UTC NOAA

TAF TAF LEAL 231700Z 2318/2418 18010KT CAVOK TX31/2413Z TN20/2406Z
BECMG 2318/2320 VRB05KT
BECMG 2323/2401 28010KT
BECMG 2412/2414 18015KT

Example: see airport list